Time;durP1;ratioP1;P1;durP2;ratioP2;P2;SDS_P1;SDS_P2;PMS_P1;PMS_P2;Temp;Humidity;BMP_temperature;BMP_pressure;BME280_temperature;BME280_humidity;BME280_pressure;Samples;Min_cycle;Max_cycle;Signal;HPM_P1;HPM_P2
2021/12/01 00:00:27;;;;;;;4.87;3.87;;;;;;;1.41;81.32;98790.28;5054771;28;20237;-66
2021/12/01 00:02:56;;;;;;;4.50;3.80;;;;;;;1.73;78.55;98770.81;5056981;28;20215;-65
2021/12/01 00:05:26;;;;;;;4.10;3.63;;;;;;;0.63;84.11;98801.41;5054621;28;20238;-66
2021/12/01 00:07:53;;;;;;;4.40;3.83;;;;;;;0.98;82.37;98784.41;5053849;28;20234;-66
2021/12/01 00:10:22;;;;;;;4.40;3.80;;;;;;;2.19;78.84;98763.16;5058289;28;20219;-64
2021/12/01 00:12:50;;;;;;;4.63;3.87;;;;;;;1.42;80.70;98770.94;5061529;28;20707;-65
2021/12/01 00:15:19;;;;;;;6.20;4.37;;;;;;;1.68;80.21;98757.28;5056086;28;20765;-64
2021/12/01 00:17:46;;;;;;;5.20;4.10;;;;;;;1.36;79.08;98748.69;5059936;28;20227;-66
2021/12/01 00:20:15;;;;;;;3.80;3.30;;;;;;;0.73;82.03;98763.88;5063458;28;20584;-64
2021/12/01 00:22:43;;;;;;;5.13;3.93;;;;;;;1.77;80.97;98750.34;5059979;28;20230;-64
2021/12/01 00:25:12;;;;;;;3.63;3.33;;;;;;;1.33;80.75;98732.31;5057161;28;20227;-64
2021/12/01 00:27:39;;;;;;;4.50;3.80;;;;;;;1.93;80.07;98735.66;5062415;28;20248;-63
2021/12/01 00:30:07;;;;;;;4.30;3.90;;;;;;;2.37;79.38;98736.94;5059910;28;20245;-64
2021/12/01 00:32:34;;;;;;;3.93;2.93;;;;;;;1.87;78.73;98712.56;5057038;28;20245;-64
2021/12/01 00:35:04;;;;;;;4.77;3.97;;;;;;;1.72;78.80;98696.38;5058173;28;20220;-63
2021/12/01 00:37:32;;;;;;;3.77;3.37;;;;;;;2.66;77.54;98710.47;5058962;28;20233;-64
2021/12/01 00:39:59;;;;;;;4.53;3.30;;;;;;;2.30;78.41;98702.47;5055947;28;20220;-64
2021/12/01 00:42:26;;;;;;;6.07;4.03;;;;;;;1.20;79.87;98699.28;5057570;28;20349;-64
2021/12/01 00:44:59;;;;;;;5.03;4.33;;;;;;;1.87;78.78;98698.56;5058962;28;20225;-66
2021/12/01 00:47:41;;;;;;;4.23;3.80;;;;;;;1.43;79.29;98691.13;5058125;28;20224;-64
2021/12/01 00:50:14;;;;;;;4.57;3.63;;;;;;;1.89;79.09;98684.31;5059059;28;20237;-64
2021/12/01 00:52:41;;;;;;;5.77;3.80;;;;;;;2.69;76.36;98668.88;5059035;28;20610;-64
2021/12/01 00:55:08;;;;;;;4.77;3.53;;;;;;;3.04;74.43;98658.53;5059590;28;20218;-64
2021/12/01 00:57:36;;;;;;;4.23;3.80;;;;;;;2.63;77.05;98666.84;5056230;28;20235;-64
2021/12/01 01:00:06;;;;;;;3.50;3.20;;;;;;;2.36;77.85;98658.94;5060141;28;20233;-63
2021/12/01 01:02:34;;;;;;;8.30;3.87;;;;;;;2.80;75.75;98649.41;5058015;28;20622;-64
2021/12/01 01:05:03;;;;;;;5.40;3.77;;;;;;;2.91;76.44;98653.63;5058805;28;20226;-64
2021/12/01 01:07:30;;;;;;;4.50;3.60;;;;;;;2.82;75.97;98646.63;5057777;28;20238;-64
2021/12/01 01:10:04;;;;;;;6.03;4.20;;;;;;;2.04;77.91;98647.00;5047822;28;20219;-63
2021/12/01 01:18:08;;;;;;;3.30;3.00;;;;;;;1.37;79.15;98657.53;5055303;28;20793;-64
2021/12/01 01:20:35;;;;;;;5.97;3.70;;;;;;;2.38;77.37;98651.75;5061535;28;20250;-64
2021/12/01 01:23:02;;;;;;;10.17;3.47;;;;;;;2.95;75.40;98641.00;5055915;28;20245;-64
2021/12/01 01:25:30;;;;;;;3.43;3.13;;;;;;;1.71;77.54;98638.69;5056329;28;20227;-66
2021/12/01 01:27:57;;;;;;;4.40;3.70;;;;;;;3.10;74.53;98642.16;5060933;28;20227;-64
2021/12/01 01:30:24;;;;;;;3.57;2.80;;;;;;;1.31;78.79;98626.53;5056658;28;20238;-64
2021/12/01 01:32:52;;;;;;;4.70;4.07;;;;;;;2.55;76.54;98624.63;5058291;28;20214;-65
2021/12/01 01:35:19;;;;;;;4.70;3.33;;;;;;;1.40;77.35;98617.84;5059355;28;20233;-64
2021/12/01 01:37:46;;;;;;;5.07;3.63;;;;;;;1.72;77.94;98629.84;5055073;28;20223;-64
2021/12/01 01:40:13;;;;;;;5.00;3.30;;;;;;;2.54;75.52;98614.25;5055925;28;20227;-64
2021/12/01 01:42:40;;;;;;;4.37;3.17;;;;;;;2.93;74.58;98612.16;5056952;28;20234;-64
2021/12/01 01:45:07;;;;;;;4.37;3.20;;;;;;;1.70;78.52;98623.88;5058249;28;20211;-64
2021/12/01 01:47:35;;;;;;;3.57;3.00;;;;;;;2.00;76.55;98601.75;5056649;28;20238;-63
2021/12/01 01:52:41;;;;;;;6.30;3.37;;;;;;;2.48;77.23;98607.78;5056548;28;20255;-66
2021/12/01 01:55:08;;;;;;;4.37;3.20;;;;;;;1.81;79.88;98610.56;5055071;28;21798;-64
2021/12/01 01:57:36;;;;;;;5.43;3.40;;;;;;;2.24;78.31;98601.25;5054535;28;20269;-64
2021/12/01 02:00:08;;;;;;;3.27;2.70;;;;;;;1.93;77.88;98590.16;5052984;28;20603;-64
2021/12/01 02:02:35;;;;;;;3.60;3.00;;;;;;;2.59;77.06;98580.41;5056922;28;20234;-66
2021/12/01 02:05:03;;;;;;;3.63;2.87;;;;;;;2.02;76.49;98563.00;5054892;28;20248;-64
2021/12/01 02:07:30;;;;;;;4.27;2.60;;;;;;;1.16;81.25;98598.09;5055126;28;20227;-66
2021/12/01 02:09:57;;;;;;;3.00;2.70;;;;;;;1.74;78.18;98564.78;5059728;28;20238;-64
2021/12/01 02:12:24;;;;;;;3.37;2.83;;;;;;;2.50;76.37;98559.25;5055584;28;20242;-64
2021/12/01 02:14:51;;;;;;;3.93;2.93;;;;;;;2.58;76.23;98561.16;5057834;28;20725;-66
2021/12/01 02:17:18;;;;;;;2.47;2.37;;;;;;;1.53;77.77;98552.69;5058713;28;20234;-66
2021/12/01 02:19:45;;;;;;;5.20;2.90;;;;;;;2.09;75.70;98543.03;5055466;28;20230;-66
2021/12/01 02:22:13;;;;;;;3.70;2.90;;;;;;;3.44;73.73;98557.09;5058547;28;20236;-64
2021/12/01 02:24:39;;;;;;;3.30;2.53;;;;;;;2.72;73.65;98533.47;5055717;28;20230;-64
2021/12/01 02:27:06;;;;;;;3.00;2.77;;;;;;;2.40;76.57;98541.88;5058073;28;20229;-64
2021/12/01 02:29:33;;;;;;;3.77;2.50;;;;;;;3.08;74.85;98522.88;5056704;28;20589;-64
2021/12/01 02:32:00;;;;;;;3.03;2.37;;;;;;;1.66;77.64;98520.00;5054583;28;20238;-64
2021/12/01 02:34:33;;;;;;;2.30;2.20;;;;;;;2.33;77.17;98528.50;5055299;28;20224;-64
2021/12/01 02:37:01;;;;;;;2.77;2.67;;;;;;;2.89;74.07;98496.72;5057924;28;20237;-66
2021/12/01 02:39:28;;;;;;;3.40;2.70;;;;;;;2.44;76.09;98490.59;5056126;28;20863;-64
2021/12/01 02:41:58;;;;;;;3.60;3.30;;;;;;;2.12;76.46;98478.75;5054318;28;20881;-66
2021/12/01 02:44:27;;;;;;;3.07;2.50;;;;;;;3.54;74.25;98491.91;5062073;28;20218;-65
2021/12/01 02:46:54;;;;;;;3.53;3.23;;;;;;;2.99;71.87;98453.50;5061099;28;20611;-65
2021/12/01 02:49:23;;;;;;;3.63;2.63;;;;;;;2.47;76.94;98477.13;5054897;28;20243;-65
2021/12/01 02:51:53;;;;;;;2.80;2.40;;;;;;;2.76;76.09;98461.06;5055239;28;20233;-66
2021/12/01 02:54:21;;;;;;;4.17;2.80;;;;;;;2.79;75.75;98457.31;5057706;28;20769;-65
2021/12/01 02:56:50;;;;;;;2.47;2.27;;;;;;;3.32;74.32;98458.16;5045557;28;20226;-66
2021/12/01 02:59:17;;;;;;;4.00;2.83;;;;;;;3.28;73.54;98436.53;5044234;28;20392;-66
2021/12/01 03:01:45;;;;;;;2.93;2.70;;;;;;;3.18;74.52;98443.72;5057484;28;20717;-66
2021/12/01 03:04:14;;;;;;;2.77;2.57;;;;;;;2.70;75.47;98456.44;5057997;28;20237;-64
2021/12/01 03:06:44;;;;;;;4.57;3.00;;;;;;;1.77;77.76;98453.22;5054855;28;20241;-64
2021/12/01 03:09:13;;;;;;;6.47;2.83;;;;;;;3.37;73.37;98447.97;5057954;28;20230;-65
2021/12/01 03:11:44;;;;;;;2.30;2.10;;;;;;;2.37;77.24;98456.16;5054857;28;20241;-66
2021/12/01 03:14:14;;;;;;;2.50;2.30;;;;;;;3.08;73.93;98421.94;5054222;28;20245;-64
2021/12/01 03:16:42;;;;;;;2.70;2.50;;;;;;;2.74;75.57;98434.06;5056781;28;20258;-64
2021/12/01 03:19:09;;;;;;;3.50;2.80;;;;;;;2.85;76.33;98435.63;5057216;28;20231;-64
2021/12/01 03:21:41;;;;;;;3.13;2.93;;;;;;;3.18;75.25;98428.72;5054603;28;20720;-66
2021/12/01 03:24:09;;;;;;;4.33;3.00;;;;;;;3.27;74.79;98429.63;5058155;28;20248;-64
2021/12/01 03:26:37;;;;;;;2.70;2.50;;;;;;;3.07;75.34;98429.03;5078459;23;20322;-72
2021/12/01 03:29:06;;;;;;;3.83;3.17;;;;;;;2.82;74.91;98415.69;5063788;28;20227;-72
2021/12/01 03:31:34;;;;;;;3.20;2.50;;;;;;;2.05;77.90;98439.06;5061198;28;20439;-71
2021/12/01 03:34:03;;;;;;;3.07;2.53;;;;;;;2.43;77.59;98428.41;5065990;28;20237;-72
2021/12/01 03:36:30;;;;;;;3.33;2.43;;;;;;;2.55;78.00;98416.66;5057709;28;20258;-72
2021/12/01 03:38:57;;;;;;;3.50;2.60;;;;;;;3.57;74.51;98412.50;5052640;28;20261;-71
2021/12/01 03:41:24;;;;;;;2.83;2.53;;;;;;;2.94;76.74;98412.81;5046714;28;20227;-73
2021/12/01 03:43:51;;;;;;;2.87;2.60;;;;;;;3.20;75.44;98403.06;5046221;28;20238;-72
2021/12/01 03:46:19;;;;;;;2.90;2.57;;;;;;;3.41;74.26;98386.88;5048715;28;20238;-72
2021/12/01 03:48:46;;;;;;;3.23;2.93;;;;;;;3.27;75.72;98381.34;5048946;28;20216;-72
2021/12/01 03:51:13;;;;;;;2.83;2.63;;;;;;;3.88;72.59;98368.88;5045007;28;20726;-72
2021/12/01 03:53:40;;;;;;;2.87;2.57;;;;;;;3.79;73.28;98358.31;5049876;28;20237;-72
2021/12/01 03:56:07;;;;;;;3.20;2.67;;;;;;;3.40;74.18;98356.22;5052352;28;20236;-71
2021/12/01 03:58:34;;;;;;;2.70;2.50;;;;;;;2.69;76.80;98362.59;5049910;28;20230;-72
2021/12/01 04:01:01;;;;;;;5.10;3.07;;;;;;;2.43;77.05;98352.09;5048174;28;20238;-72
2021/12/01 04:03:28;;;;;;;4.10;2.40;;;;;;;2.73;76.92;98358.69;5049636;28;20668;-72
2021/12/01 04:05:55;;;;;;;5.30;2.63;;;;;;;3.10;74.82;98340.91;5048844;28;20699;-72
2021/12/01 04:08:22;;;;;;;2.30;2.20;;;;;;;3.02;75.41;98333.81;5049463;28;20231;-72
2021/12/01 04:10:49;;;;;;;2.20;1.97;;;;;;;2.97;77.34;98346.66;5060836;28;20616;-72
2021/12/01 04:13:16;;;;;;;2.67;2.43;;;;;;;3.78;73.53;98311.81;5069040;28;20219;-72
2021/12/01 04:15:44;;;;;;;2.47;2.27;;;;;;;2.43;76.62;98318.69;5068586;28;20226;-72
2021/12/01 04:18:11;;;;;;;3.67;2.53;;;;;;;2.69;76.48;98317.84;5048007;28;20223;-72
2021/12/01 04:20:38;;;;;;;2.97;2.10;;;;;;;2.85;76.84;98306.59;5049601;28;20238;-72
2021/12/01 04:23:05;;;;;;;2.50;2.20;;;;;;;3.15;76.22;98313.13;5049123;28;20220;-72
2021/12/01 04:25:33;;;;;;;2.70;2.60;;;;;;;3.65;73.25;98292.19;5048562;28;20604;-72
2021/12/01 04:28:01;;;;;;;2.07;1.97;;;;;;;2.98;75.16;98293.81;5054339;28;20237;-73
2021/12/01 04:30:28;;;;;;;2.50;2.30;;;;;;;3.03;76.42;98304.69;5063082;28;20226;-73
2021/12/01 04:32:56;;;;;;;2.20;2.03;;;;;;;2.29;77.37;98295.56;5068794;28;20234;-72
2021/12/01 04:35:25;;;;;;;2.03;1.80;;;;;;;3.56;74.95;98294.81;5067205;28;20562;-72
2021/12/01 04:37:53;;;;;;;2.80;2.60;;;;;;;2.94;75.97;98283.72;5068166;28;20236;-69
2021/12/01 04:40:21;;;;;;;2.10;1.90;;;;;;;3.29;75.83;98271.31;5068596;28;20239;-69
2021/12/01 04:42:48;;;;;;;2.10;2.00;;;;;;;3.41;74.71;98277.97;5060822;28;20218;-68
2021/12/01 04:45:18;;;;;;;2.70;2.50;;;;;;;2.50;76.55;98266.25;5067914;28;21144;-67
2021/12/01 04:47:53;;;;;;;2.67;2.30;;;;;;;3.53;72.31;98246.84;5046409;28;20235;-67
2021/12/01 04:50:23;;;;;;;2.73;2.07;;;;;;;3.44;74.93;98269.75;5048734;28;20254;-67
2021/12/01 04:52:51;;;;;;;1.87;1.60;;;;;;;2.97;74.45;98247.38;5055859;28;20447;-66
2021/12/01 04:55:18;;;;;;;2.40;1.97;;;;;;;3.66;74.19;98263.00;5067730;28;20290;-72
2021/12/01 04:57:46;;;;;;;2.40;2.20;;;;;;;3.48;75.20;98254.44;5062911;28;20338;-71
2021/12/01 05:00:20;;;;;;;2.20;2.00;;;;;;;4.19;72.31;98252.13;5073328;28;20233;-71
2021/12/01 05:02:48;;;;;;;2.27;2.00;;;;;;;4.11;72.96;98255.56;5068416;28;20223;-71
2021/12/01 05:05:15;;;;;;;2.73;2.53;;;;;;;4.21;72.68;98243.03;5067791;28;20223;-72
2021/12/01 05:07:43;;;;;;;2.90;2.70;;;;;;;3.69;74.73;98223.13;5066811;28;20227;-71
2021/12/01 05:10:10;;;;;;;3.37;1.93;;;;;;;2.87;76.69;98225.59;5067969;28;20757;-72
2021/12/01 05:12:38;;;;;;;1.90;1.80;;;;;;;2.96;76.45;98203.56;5067531;28;20227;-71
2021/12/01 05:15:06;;;;;;;2.87;2.67;;;;;;;2.83;75.45;98190.00;5066267;28;20600;-71
2021/12/01 05:17:32;;;;;;;1.90;1.80;;;;;;;2.84;77.09;98187.22;5067583;28;20230;-71
2021/12/01 05:20:00;;;;;;;2.27;2.07;;;;;;;3.36;76.63;98195.94;5068325;28;20230;-71
2021/12/01 05:22:27;;;;;;;2.60;2.40;;;;;;;2.74;77.04;98178.63;5068494;28;20223;-71
2021/12/01 05:24:54;;;;;;;1.73;1.63;;;;;;;2.56;76.63;98147.19;5067275;28;20215;-71
2021/12/01 05:27:21;;;;;;;2.33;2.20;;;;;;;2.45;76.62;98161.44;5067862;28;20226;-71
2021/12/01 05:29:48;;;;;;;2.40;2.30;;;;;;;2.76;77.80;98154.78;5059845;28;20223;-71
2021/12/01 05:32:16;;;;;;;2.23;2.00;;;;;;;2.63;76.82;98139.44;5068246;28;20817;-72
2021/12/01 05:34:44;;;;;;;1.83;1.73;;;;;;;2.88;75.91;98148.22;5067733;28;20297;-71
2021/12/01 05:37:11;;;;;;;1.70;1.60;;;;;;;2.58;77.00;98162.78;5067571;28;20619;-71
2021/12/01 05:39:41;;;;;;;3.73;1.90;;;;;;;3.14;74.75;98137.56;5067372;28;20230;-71
2021/12/01 05:42:08;;;;;;;3.17;1.90;;;;;;;3.54;75.48;98143.03;5067681;28;20223;-71
2021/12/01 05:44:35;;;;;;;2.07;1.97;;;;;;;3.46;73.92;98116.69;5067383;28;20227;-70
2021/12/01 05:47:02;;;;;;;2.17;1.97;;;;;;;4.46;72.27;98130.25;5066972;28;20231;-71
2021/12/01 05:49:29;;;;;;;2.43;2.10;;;;;;;3.65;71.66;98107.59;5067406;28;20222;-71
2021/12/01 05:51:56;;;;;;;2.10;1.90;;;;;;;3.56;74.04;98118.16;5067979;28;20230;-71
2021/12/01 05:54:23;;;;;;;2.10;1.90;;;;;;;3.86;74.01;98133.41;5067740;28;20237;-71
2021/12/01 05:56:50;;;;;;;2.77;1.90;;;;;;;3.05;75.80;98128.84;5045439;28;20227;-71
2021/12/01 05:59:17;;;;;;;1.87;1.77;;;;;;;3.56;74.87;98114.69;5067007;28;20239;-71
2021/12/01 06:01:44;;;;;;;1.70;1.60;;;;;;;3.23;73.82;98099.69;5066633;28;20230;-71
2021/12/01 06:04:11;;;;;;;1.90;1.80;;;;;;;3.30;75.84;98115.66;5063997;28;20219;-71
2021/12/01 06:06:38;;;;;;;1.60;1.60;;;;;;;3.24;76.04;98116.34;5066518;28;20253;-71
2021/12/01 06:09:05;;;;;;;1.90;1.80;;;;;;;3.66;76.01;98098.69;5066181;28;20216;-70
2021/12/01 06:11:32;;;;;;;2.13;2.03;;;;;;;4.57;72.94;98088.59;5046104;28;20220;-71
2021/12/01 06:14:01;;;;;;;1.80;1.70;;;;;;;3.78;73.39;98095.53;5046563;28;20233;-71
2021/12/01 06:16:28;;;;;;;2.00;1.90;;;;;;;4.40;73.53;98088.72;5045722;28;20242;-71
2021/12/01 06:18:55;;;;;;;1.90;1.80;;;;;;;4.25;74.38;98093.06;5055623;28;20246;-71
2021/12/01 06:21:22;;;;;;;1.77;1.67;;;;;;;3.45;74.60;98070.22;5045508;28;20230;-71
2021/12/01 06:23:48;;;;;;;2.17;1.77;;;;;;;4.35;73.95;98078.66;5060873;28;20225;-71
2021/12/01 06:26:15;;;;;;;1.27;1.27;;;;;;;4.25;73.26;98066.66;5041643;28;20353;-72
2021/12/01 06:28:42;;;;;;;1.90;1.80;;;;;;;4.28;73.24;98067.16;5056851;28;20219;-71
2021/12/01 06:31:10;;;;;;;1.70;1.60;;;;;;;3.55;74.51;98062.94;5066069;28;20695;-71
2021/12/01 06:33:37;;;;;;;2.23;2.13;;;;;;;4.42;73.51;98070.88;5066440;28;20232;-71
2021/12/01 06:36:04;;;;;;;3.30;2.00;;;;;;;4.35;73.63;98062.00;5066810;28;20227;-71
2021/12/01 06:38:32;;;;;;;1.73;1.60;;;;;;;3.48;77.07;98069.88;5058777;28;20225;-71
2021/12/01 06:40:59;;;;;;;1.80;1.70;;;;;;;3.21;76.36;98048.97;5061234;28;20219;-71
2021/12/01 06:43:26;;;;;;;1.70;1.60;;;;;;;3.01;76.53;98052.94;5066878;28;20229;-71
2021/12/01 06:45:53;;;;;;;5.10;2.10;;;;;;;3.50;75.99;98023.09;5065462;28;20253;-71
2021/12/01 06:48:20;;;;;;;2.10;2.00;;;;;;;3.55;77.38;98033.94;5066860;28;20233;-71
2021/12/01 06:50:47;;;;;;;1.90;1.70;;;;;;;4.33;75.55;98022.59;5053768;28;20306;-71
2021/12/01 06:53:15;;;;;;;2.90;2.17;;;;;;;4.43;75.86;98008.31;5045480;28;20224;-71
2021/12/01 06:55:42;;;;;;;1.80;1.70;;;;;;;4.00;76.92;98006.09;5049029;28;20574;-71
2021/12/01 06:58:09;;;;;;;2.57;2.20;;;;;;;3.41;77.20;97991.47;5046727;28;20691;-71
2021/12/01 07:00:37;;;;;;;1.90;1.80;;;;;;;3.68;77.10;97986.78;5047020;28;20620;-71
2021/12/01 07:03:04;;;;;;;1.93;1.83;;;;;;;4.14;76.13;97986.88;5054589;28;20215;-72
2021/12/01 07:05:31;;;;;;;1.80;1.70;;;;;;;3.95;75.39;97966.22;5051446;28;20237;-70
2021/12/01 07:07:58;;;;;;;2.50;1.73;;;;;;;4.94;72.96;97971.66;5048927;28;20219;-71
2021/12/01 07:10:25;;;;;;;2.87;1.73;;;;;;;3.95;74.81;97958.31;5066368;28;20770;-71
2021/12/01 07:12:52;;;;;;;2.20;2.10;;;;;;;5.23;71.88;97951.56;5066805;28;20256;-71
2021/12/01 07:15:18;;;;;;;1.77;1.67;;;;;;;3.61;74.82;97948.91;5066338;28;20597;-70
2021/12/01 07:17:45;;;;;;;1.83;1.70;;;;;;;4.67;72.88;97951.84;5066620;28;20611;-70
2021/12/01 07:20:14;;;;;;;1.70;1.60;;;;;;;3.85;74.43;97955.06;5061991;28;20228;-71
2021/12/01 07:22:44;;;;;;;1.70;1.60;;;;;;;5.28;70.88;97941.25;5050371;28;20231;-71
2021/12/01 07:25:13;;;;;;;1.60;1.50;;;;;;;3.82;73.42;97932.47;5049953;28;20921;-71
2021/12/01 07:27:40;;;;;;;1.73;1.63;;;;;;;3.59;74.73;97937.69;5054867;28;20276;-71
2021/12/01 07:30:08;;;;;;;1.80;1.70;;;;;;;4.77;72.08;97939.25;5061201;28;20227;-71
2021/12/01 07:32:35;;;;;;;1.63;1.53;;;;;;;4.41;72.27;97907.38;5070575;28;20223;-71
2021/12/01 07:35:02;;;;;;;1.90;1.80;;;;;;;5.45;69.70;97905.69;5070121;28;20223;-71
2021/12/01 07:37:29;;;;;;;2.10;1.90;;;;;;;3.91;74.34;97913.00;5069717;28;20231;-70
2021/12/01 07:39:56;;;;;;;1.70;1.60;;;;;;;4.22;72.34;97906.03;5049052;28;20228;-71
2021/12/01 07:42:23;;;;;;;1.70;1.60;;;;;;;4.52;71.13;97899.84;5049035;28;20228;-70
2021/12/01 07:44:50;;;;;;;1.70;1.60;;;;;;;5.58;69.58;97907.69;5054990;28;20711;-71
2021/12/01 07:47:17;;;;;;;1.80;1.70;;;;;;;4.54;70.82;97881.19;5064364;28;21619;-71
2021/12/01 07:49:44;;;;;;;2.03;1.93;;;;;;;3.94;73.74;97895.97;5049007;28;20217;-71
2021/12/01 07:52:11;;;;;;;1.97;1.87;;;;;;;4.17;73.26;97896.00;5048357;28;20228;-71
2021/12/01 07:54:41;;;;;;;6.77;2.73;;;;;;;4.86;71.94;97890.59;5050592;28;20254;-70
2021/12/01 07:57:08;;;;;;;1.80;1.70;;;;;;;5.73;70.34;97894.44;5048839;28;20238;-70
2021/12/01 07:59:36;;;;;;;1.60;1.50;;;;;;;5.07;72.44;97883.81;5050500;28;20602;-71
2021/12/01 08:02:03;;;;;;;1.80;1.60;;;;;;;4.28;75.38;97903.50;5057369;28;20227;-72
2021/12/01 08:04:30;;;;;;;1.70;1.60;;;;;;;5.39;72.57;97887.09;5069560;28;20219;-71
2021/12/01 08:06:57;;;;;;;2.10;1.90;;;;;;;4.64;74.58;97887.03;5073368;28;20233;-72
2021/12/01 08:09:25;;;;;;;1.87;1.50;;;;;;;5.30;72.19;97872.34;5052155;28;20236;-71
2021/12/01 08:11:54;;;;;;;1.77;1.67;;;;;;;4.93;72.64;97864.31;5049607;28;20242;-71
2021/12/01 08:14:21;;;;;;;1.80;1.70;;;;;;;4.05;76.26;97869.19;5049963;28;20306;-71
2021/12/01 08:16:49;;;;;;;1.40;1.40;;;;;;;4.48;76.58;97853.66;5045847;28;20223;-70
2021/12/01 08:19:16;;;;;;;1.43;1.43;;;;;;;5.56;73.10;97840.91;5052741;28;20238;-72
2021/12/01 08:21:47;;;;;;;1.90;1.80;;;;;;;5.15;74.09;97845.91;5034198;28;20216;-71
2021/12/01 08:24:14;;;;;;;1.70;1.60;;;;;;;4.90;74.69;97833.75;5069636;28;20220;-71
2021/12/01 08:26:43;;;;;;;1.53;1.50;;;;;;;4.48;75.76;97844.91;5068504;28;20232;-70
2021/12/01 08:29:11;;;;;;;1.70;1.60;;;;;;;4.95;72.30;97819.22;5063891;28;20221;-71
2021/12/01 08:31:39;;;;;;;1.80;1.70;;;;;;;4.99;73.82;97828.41;5067908;28;20227;-70
2021/12/01 08:34:06;;;;;;;2.10;2.00;;;;;;;4.05;73.66;97807.69;5069664;28;20226;-71
2021/12/01 08:36:34;;;;;;;2.70;2.50;;;;;;;4.94;71.12;97807.00;5069251;28;20561;-71
2021/12/01 08:39:03;;;;;;;2.27;1.80;;;;;;;5.49;71.83;97810.13;5068964;28;20223;-72
2021/12/01 08:41:30;;;;;;;1.83;1.70;;;;;;;3.91;75.06;97818.03;5067214;28;20222;-70
2021/12/01 08:43:57;;;;;;;1.50;1.50;;;;;;;5.59;71.40;97808.78;5051023;28;20230;-72
2021/12/01 08:46:24;;;;;;;1.40;1.40;;;;;;;4.48;74.75;97815.88;5060385;28;20233;-70
2021/12/01 08:48:51;;;;;;;1.80;1.70;;;;;;;5.20;71.26;97791.47;5053904;28;20715;-72
2021/12/01 08:51:18;;;;;;;1.80;1.70;;;;;;;5.98;69.49;97789.00;5068820;28;20231;-72
2021/12/01 08:53:45;;;;;;;1.80;1.70;;;;;;;5.79;69.48;97789.66;5068449;28;20228;-71
2021/12/01 08:56:12;;;;;;;1.83;1.73;;;;;;;5.27;70.97;97791.56;5048034;28;20230;-71
2021/12/01 08:58:40;;;;;;;2.23;2.13;;;;;;;5.54;69.13;97776.81;5067752;28;20592;-71
2021/12/01 09:01:07;;;;;;;9.87;6.17;;;;;;;5.52;70.19;97785.94;5068781;28;20215;-71
2021/12/01 09:03:34;;;;;;;11.13;6.97;;;;;;;5.91;69.38;97789.97;5068378;28;20219;-71
2021/12/01 09:06:01;;;;;;;8.47;5.00;;;;;;;5.45;70.09;97781.41;5068592;28;20861;-71
2021/12/01 09:08:28;;;;;;;10.77;5.33;;;;;;;5.77;69.32;97773.97;5068712;28;20300;-71
2021/12/01 09:10:59;;;;;;;12.97;7.83;;;;;;;6.03;68.69;97762.00;5068403;28;20223;-71
2021/12/01 09:13:29;;;;;;;1.80;1.70;;;;;;;5.33;70.67;97761.75;5068412;28;20231;-70
2021/12/01 09:15:57;;;;;;;1.80;1.67;;;;;;;6.11;69.60;97782.22;5066716;28;20771;-72
2021/12/01 09:18:27;;;;;;;1.60;1.50;;;;;;;5.99;68.56;97748.31;5068708;28;20227;-71
2021/12/01 09:20:54;;;;;;;1.60;1.50;;;;;;;4.81;72.11;97766.19;5055690;28;20219;-72
2021/12/01 09:23:21;;;;;;;2.07;1.87;;;;;;;5.60;68.59;97719.72;5068885;28;20691;-71
2021/12/01 09:25:49;;;;;;;1.70;1.60;;;;;;;5.70;69.49;97749.31;5047935;28;20598;-71
2021/12/01 09:28:20;;;;;;;1.97;1.70;;;;;;;5.80;67.43;97720.69;5068075;28;20219;-71
2021/12/01 09:30:47;;;;;;;1.80;1.70;;;;;;;6.12;68.79;97752.06;5094902;22;20294;-65
2021/12/01 09:33:14;;;;;;;1.47;1.40;;;;;;;5.81;69.12;97732.09;5105001;27;20229;-65
2021/12/01 09:35:43;;;;;;;2.10;1.73;;;;;;;5.91;68.89;97737.88;5104682;28;20222;-66
2021/12/01 09:38:13;;;;;;;1.90;1.80;;;;;;;4.95;70.67;97727.56;5091548;28;20218;-66
2021/12/01 09:40:45;;;;;;;1.80;1.70;;;;;;;6.24;68.46;97718.78;5080845;28;20317;-66
2021/12/01 09:43:15;;;;;;;1.70;1.60;;;;;;;6.01;69.05;97724.31;5085972;27;20223;-66
2021/12/01 09:45:43;;;;;;;1.80;1.70;;;;;;;5.57;70.10;97718.25;5084548;28;20226;-66
2021/12/01 09:48:10;;;;;;;1.70;1.60;;;;;;;5.25;69.10;97693.94;5087348;28;20215;-65
2021/12/01 09:50:37;;;;;;;1.80;1.70;;;;;;;6.36;68.21;97709.31;5097072;28;20240;-65
2021/12/01 09:53:04;;;;;;;2.60;2.40;;;;;;;7.07;66.83;97704.75;5095859;28;20224;-66
2021/12/01 09:55:31;;;;;;;2.40;1.80;;;;;;;5.21;71.49;97689.19;5101083;27;20226;-63
2021/12/01 09:58:01;;;;;;;1.80;1.70;;;;;;;6.07;70.75;97706.84;5098365;28;20232;-63
2021/12/01 10:00:29;;;;;;;1.50;1.50;;;;;;;6.24;70.55;97694.13;5086563;27;20223;-63
2021/12/01 10:02:57;;;;;;;1.40;1.40;;;;;;;5.89;71.91;97681.69;5079217;28;20212;-63
2021/12/01 10:05:51;;;;;;;2.17;1.97;;;;;;;4.87;73.31;97680.91;5074403;28;20221;-63
2021/12/01 10:08:25;;;;;;;2.60;1.67;;;;;;;6.19;71.60;97669.06;5076751;28;20645;-63
2021/12/01 10:10:54;;;;;;;1.70;1.60;;;;;;;5.58;72.56;97664.34;5070357;28;20606;-66
2021/12/01 10:13:31;;;;;;;1.70;1.60;;;;;;;5.39;75.84;97688.78;5076994;28;20546;-64
2021/12/01 10:16:01;;;;;;;1.60;1.60;;;;;;;5.76;73.50;97658.56;5090221;28;20405;-66
2021/12/01 10:18:34;;;;;;;2.03;1.40;;;;;;;6.22;72.85;97644.00;5096186;28;20229;-67
2021/12/01 10:21:06;;;;;;;1.67;1.57;;;;;;;5.18;73.01;97602.38;5100994;28;20236;-63
2021/12/01 10:23:35;;;;;;;2.03;1.93;;;;;;;6.40;72.48;97607.25;5096495;27;20708;-63
2021/12/01 10:26:16;;;;;;;3.17;1.73;;;;;;;5.92;74.46;97619.59;5099586;28;20222;-63
2021/12/01 10:28:46;;;;;;;1.83;1.70;;;;;;;5.41;75.63;97604.78;5094984;28;20219;-63
2021/12/01 10:31:35;;;;;;;2.00;1.87;;;;;;;5.26;76.43;97607.50;5105723;28;20270;-67
2021/12/01 10:34:31;;;;;;;1.60;1.50;;;;;;;5.14;77.27;97603.75;5097243;28;20851;-64
2021/12/01 10:37:26;;;;;;;1.77;1.40;;;;;;;5.63;76.35;97593.19;5075884;28;20283;-64
2021/12/01 10:40:11;;;;;;;1.63;1.53;;;;;;;5.03;75.52;97576.03;5087677;28;20219;-64
2021/12/01 10:43:17;;;;;;;1.60;1.50;;;;;;;5.41;74.98;97571.25;5090583;27;20236;-64
2021/12/01 10:45:47;;;;;;;1.73;1.67;;;;;;;5.40;74.56;97547.66;4982404;28;20743;-66
2021/12/01 10:48:26;;;;;;;3.13;1.43;;;;;;;6.42;73.51;97579.78;4984426;28;20222;-64
2021/12/01 10:50:53;;;;;;;1.70;1.60;;;;;;;4.87;76.92;97561.19;5055125;28;20222;-66
2021/12/01 10:53:23;;;;;;;1.40;1.40;;;;;;;6.19;75.60;97557.06;5084471;28;20687;-64
2021/12/01 10:55:53;;;;;;;2.37;1.90;;;;;;;6.17;74.66;97548.47;5087550;28;20236;-64
2021/12/01 10:58:35;;;;;;;2.13;2.03;;;;;;;6.44;74.08;97533.56;5070635;28;20230;-66
2021/12/01 11:03:45;;;;;;;2.53;2.33;;;;;;;4.65;82.55;97545.38;5036695;28;20576;-66
2021/12/01 11:06:13;;;;;;;1.83;1.73;;;;;;;4.92;80.41;97550.91;5024666;28;20714;-65
2021/12/01 11:08:42;;;;;;;1.60;1.50;;;;;;;4.04;83.20;97564.13;5024984;28;20230;-66
2021/12/01 11:11:14;;;;;;;1.93;1.83;;;;;;;4.82;81.08;97531.88;5024606;28;20229;-66
2021/12/01 11:14:08;;;;;;;2.37;1.77;;;;;;;5.10;80.38;97521.38;5025467;28;20229;-65
2021/12/01 11:16:37;;;;;;;2.77;1.97;;;;;;;6.13;76.32;97500.41;5024236;28;20232;-65
2021/12/01 11:19:04;;;;;;;2.10;1.90;;;;;;;4.91;82.22;97515.75;5025010;28;20602;-65
2021/12/01 11:21:31;;;;;;;2.00;1.90;;;;;;;4.64;81.74;97529.69;5024960;28;20221;-66
2021/12/01 11:24:01;;;;;;;1.50;1.40;;;;;;;5.25;80.31;97511.53;5023713;28;20234;-65
2021/12/01 11:26:30;;;;;;;1.80;1.70;;;;;;;5.14;80.24;97505.97;5021629;28;20229;-65
2021/12/01 11:29:08;;;;;;;2.13;1.87;;;;;;;5.43;76.55;97470.59;5023541;28;20218;-65
2021/12/01 11:31:45;;;;;;;1.90;1.80;;;;;;;4.21;81.32;97503.25;5024809;28;20735;-65
2021/12/01 11:34:15;;;;;;;1.70;1.60;;;;;;;4.94;80.77;97485.50;5024521;28;20227;-65
2021/12/01 11:36:46;;;;;;;2.10;1.83;;;;;;;5.25;80.19;97463.97;5024552;28;20218;-65
2021/12/01 11:39:18;;;;;;;1.73;1.63;;;;;;;5.71;78.20;97448.56;5021522;28;20216;-65
2021/12/01 11:41:47;;;;;;;3.20;1.80;;;;;;;5.20;80.80;97455.78;5026806;28;20232;-65
2021/12/01 11:44:17;;;;;;;1.70;1.60;;;;;;;4.41;81.64;97464.69;5028607;28;20239;-65
2021/12/01 11:46:46;;;;;;;1.63;1.53;;;;;;;4.65;81.85;97450.28;5022817;28;20228;-65
2021/12/01 11:49:16;;;;;;;2.87;1.43;;;;;;;5.00;82.88;97439.81;5024728;28;20289;-65
2021/12/01 11:51:48;;;;;;;1.70;1.60;;;;;;;5.34;81.27;97417.03;5022673;28;20250;-65
2021/12/01 11:54:21;;;;;;;1.97;1.77;;;;;;;5.27;81.93;97408.25;5023698;28;20224;-65
2021/12/01 11:56:48;;;;;;;2.03;1.80;;;;;;;5.09;81.75;97414.88;5022762;28;20216;-65
2021/12/01 11:59:15;;;;;;;1.60;1.50;;;;;;;5.70;79.65;97396.66;5023802;28;20268;-65